TVF4885 LEZL-LFBD
Flight info
| Callsign | TVF4885 |
|---|---|
| Flight time | 1h 17m |
| Altitude | 36000 |
| Route | HIJ DCT PARKA DCT TLD DCT SIE DCT EDIGO DCT DGO L176 SSN DCT URUNA DCT BTZ DCT VAVIX |
| Aircraft | B738/M-SDE2E3FGHIRWXY/LB1 |
Departure
| Time | 2026-05-07 04:10 |
|---|---|
| Airport | Seville Airport (LEZL) |
Arrival
| Time | 2026-05-07 05:27 |
|---|---|
| Airport | Bordeaux–Mérignac Airport (LFBD) |
| Time | Latitude | Longitude | Altitude | Speed | Heading |
|---|---|---|---|---|---|
| 2026-05-07 03:48 | 37.42213 | -5.89946 | 97 ft | 0 kts | 314° |
| 2026-05-07 04:04 | 37.42194 | -5.89921 | 93 ft | 6 kts | 313° |
| 2026-05-07 04:04 | 37.42175 | -5.89878 | 92 ft | 6 kts | 258° |
| 2026-05-07 04:04 | 37.42180 | -5.89861 | 93 ft | 0 kts | 228° |
| 2026-05-07 04:06 | 37.42144 | -5.89909 | 95 ft | 13 kts | 226° |
| 2026-05-07 04:06 | 37.42077 | -5.89989 | 93 ft | 13 kts | 225° |
| 2026-05-07 04:06 | 37.42039 | -5.90087 | 94 ft | 13 kts | 224° |
| 2026-05-07 04:06 | 37.41980 | -5.90155 | 96 ft | 12 kts | 265° |
| 2026-05-07 04:07 | 37.41980 | -5.90262 | 94 ft | 12 kts | 271° |
| 2026-05-07 04:07 | 37.41978 | -5.90389 | 93 ft | 19 kts | 269° |
| 2026-05-07 04:07 | 37.41979 | -5.90553 | 92 ft | 19 kts | 272° |
| 2026-05-07 04:07 | 37.41978 | -5.90715 | 91 ft | 18 kts | 269° |
| 2026-05-07 04:08 | 37.41978 | -5.90874 | 90 ft | 18 kts | 270° |
| 2026-05-07 04:08 | 37.41977 | -5.91023 | 89 ft | 17 kts | 269° |
| 2026-05-07 04:08 | 37.41977 | -5.91168 | 88 ft | 16 kts | 270° |
| 2026-05-07 04:08 | 37.41948 | -5.91299 | 90 ft | 16 kts | 218° |
| 2026-05-07 04:09 | 37.41851 | -5.91263 | 90 ft | 17 kts | 127° |
| 2026-05-07 04:09 | 37.41803 | -5.91130 | 90 ft | 25 kts | 104° |
| 2026-05-07 04:09 | 37.41790 | -5.90527 | 95 ft | 111 kts | 89° |
| 2026-05-07 04:09 | 37.41790 | -5.89291 | 333 ft | 158 kts | 91° |
| 2026-05-07 04:10 | 37.41777 | -5.87778 | 968 ft | 184 kts | 91° |
| 2026-05-07 04:10 | 37.41768 | -5.86253 | 2306 ft | 171 kts | 92° |
| 2026-05-07 04:10 | 37.41757 | -5.84751 | 3168 ft | 175 kts | 92° |
| 2026-05-07 04:10 | 37.41746 | -5.83128 | 3645 ft | 201 kts | 92° |
| 2026-05-07 04:11 | 37.41821 | -5.81256 | 3885 ft | 228 kts | 82° |
| 2026-05-07 04:11 | 37.42157 | -5.79225 | 4268 ft | 244 kts | 78° |
| 2026-05-07 04:11 | 37.42667 | -5.77166 | 4865 ft | 251 kts | 62° |
| 2026-05-07 04:11 | 37.43852 | -5.75559 | 5495 ft | 254 kts | 34° |
| 2026-05-07 04:12 | 37.45409 | -5.74483 | 6135 ft | 257 kts | 26° |
| 2026-05-07 04:12 | 37.47036 | -5.73506 | 6722 ft | 261 kts | 25° |
| 2026-05-07 04:12 | 37.48692 | -5.72534 | 7309 ft | 264 kts | 25° |
| 2026-05-07 04:12 | 37.50365 | -5.71552 | 7895 ft | 267 kts | 26° |
| 2026-05-07 04:13 | 37.52055 | -5.70554 | 8480 ft | 270 kts | 26° |
| 2026-05-07 04:13 | 37.53759 | -5.69540 | 9059 ft | 273 kts | 26° |
| 2026-05-07 04:13 | 37.55483 | -5.68510 | 9636 ft | 276 kts | 26° |
| 2026-05-07 04:13 | 37.57224 | -5.67465 | 10172 ft | 278 kts | 26° |
| 2026-05-07 04:14 | 37.58977 | -5.66410 | 10703 ft | 281 kts | 25° |
| 2026-05-07 04:14 | 37.60748 | -5.65340 | 11212 ft | 284 kts | 25° |
| 2026-05-07 04:14 | 37.62536 | -5.64260 | 11735 ft | 286 kts | 25° |
| 2026-05-07 04:14 | 37.64340 | -5.63168 | 12257 ft | 289 kts | 25° |
| 2026-05-07 04:15 | 37.66158 | -5.62067 | 12778 ft | 291 kts | 25° |
| 2026-05-07 04:15 | 37.67992 | -5.60953 | 13286 ft | 294 kts | 24° |
| 2026-05-07 04:15 | 37.69846 | -5.59828 | 13781 ft | 297 kts | 24° |
| 2026-05-07 04:15 | 37.71716 | -5.58691 | 14223 ft | 300 kts | 24° |
| 2026-05-07 04:16 | 37.73622 | -5.57533 | 14543 ft | 312 kts | 24° |
| 2026-05-07 04:16 | 37.75646 | -5.56303 | 14650 ft | 334 kts | 24° |
| 2026-05-07 04:16 | 37.77811 | -5.54986 | 14820 ft | 356 kts | 24° |
| 2026-05-07 04:16 | 37.80111 | -5.53585 | 15000 ft | 377 kts | 25° |
| 2026-05-07 04:17 | 37.82519 | -5.52117 | 15410 ft | 389 kts | 25° |
| 2026-05-07 04:17 | 37.84971 | -5.50619 | 16067 ft | 393 kts | 25° |
| 2026-05-07 04:17 | 37.87445 | -5.49106 | 16786 ft | 396 kts | 25° |
| 2026-05-07 04:17 | 37.89935 | -5.47582 | 17462 ft | 400 kts | 25° |
| 2026-05-07 04:18 | 37.92453 | -5.46040 | 18099 ft | 404 kts | 25° |
| 2026-05-07 04:18 | 37.95000 | -5.44481 | 18673 ft | 408 kts | 25° |
| 2026-05-07 04:18 | 37.97568 | -5.42907 | 19210 ft | 412 kts | 25° |
| 2026-05-07 04:18 | 38.00164 | -5.41314 | 19757 ft | 417 kts | 25° |
| 2026-05-07 04:19 | 38.02753 | -5.39725 | 20287 ft | 421 kts | 25° |
| 2026-05-07 04:19 | 38.05399 | -5.38100 | 20813 ft | 425 kts | 24° |
| 2026-05-07 04:19 | 38.08104 | -5.36437 | 21326 ft | 429 kts | 24° |
| 2026-05-07 04:19 | 38.10802 | -5.34777 | 21843 ft | 433 kts | 24° |
| 2026-05-07 04:20 | 38.13489 | -5.33122 | 22352 ft | 437 kts | 24° |
| 2026-05-07 04:20 | 38.16232 | -5.31432 | 22849 ft | 440 kts | 24° |
| 2026-05-07 04:20 | 38.18999 | -5.29726 | 23337 ft | 444 kts | 24° |
| 2026-05-07 04:21 | 38.24604 | -5.26264 | 24138 ft | 451 kts | 24° |
| 2026-05-07 04:21 | 38.27436 | -5.24512 | 24529 ft | 454 kts | 24° |
| 2026-05-07 04:21 | 38.30291 | -5.22745 | 24921 ft | 458 kts | 24° |
| 2026-05-07 04:21 | 38.33165 | -5.20964 | 25298 ft | 461 kts | 24° |
| 2026-05-07 04:22 | 38.36056 | -5.19171 | 25677 ft | 464 kts | 24° |
| 2026-05-07 04:22 | 38.38966 | -5.17364 | 26045 ft | 467 kts | 24° |
| 2026-05-07 04:22 | 38.41897 | -5.15543 | 26397 ft | 470 kts | 24° |
| 2026-05-07 04:22 | 38.44850 | -5.13708 | 26745 ft | 473 kts | 24° |
| 2026-05-07 04:23 | 38.47817 | -5.11861 | 27091 ft | 476 kts | 24° |
| 2026-05-07 04:23 | 38.50920 | -5.10421 | 27376 ft | 475 kts | 8° |
| 2026-05-07 04:23 | 38.54189 | -5.10133 | 27700 ft | 470 kts | 352° |
| 2026-05-07 04:23 | 38.57444 | -5.10466 | 28094 ft | 470 kts | 351° |
| 2026-05-07 04:24 | 38.60705 | -5.10864 | 28408 ft | 472 kts | 350° |
| 2026-05-07 04:24 | 38.63989 | -5.11267 | 28683 ft | 476 kts | 350° |
| 2026-05-07 04:24 | 38.67298 | -5.11651 | 28972 ft | 479 kts | 351° |
| 2026-05-07 04:24 | 38.70629 | -5.12012 | 29300 ft | 481 kts | 351° |
| 2026-05-07 04:25 | 38.73957 | -5.12356 | 29624 ft | 483 kts | 351° |
| 2026-05-07 04:25 | 38.77335 | -5.12698 | 29895 ft | 486 kts | 351° |
| 2026-05-07 04:25 | 38.80711 | -5.13037 | 30169 ft | 487 kts | 351° |
| 2026-05-07 04:25 | 38.84089 | -5.13376 | 30567 ft | 485 kts | 351° |
| 2026-05-07 04:26 | 38.87443 | -5.13715 | 31014 ft | 482 kts | 351° |
| 2026-05-07 04:26 | 38.90782 | -5.14055 | 31404 ft | 481 kts | 351° |
| 2026-05-07 04:26 | 38.94116 | -5.14397 | 31730 ft | 481 kts | 351° |
| 2026-05-07 04:26 | 38.97477 | -5.14407 | 32044 ft | 487 kts | 2° |
| 2026-05-07 04:27 | 39.00807 | -5.13549 | 32411 ft | 490 kts | 14° |
| 2026-05-07 04:27 | 39.03973 | -5.11914 | 32808 ft | 492 kts | 26° |
| 2026-05-07 04:27 | 39.06897 | -5.09615 | 33152 ft | 493 kts | 31° |
| 2026-05-07 04:27 | 39.09765 | -5.07189 | 33454 ft | 493 kts | 32° |
| 2026-05-07 04:28 | 39.12618 | -5.04735 | 33755 ft | 493 kts | 32° |
| 2026-05-07 04:28 | 39.15469 | -5.02291 | 34075 ft | 491 kts | 31° |
| 2026-05-07 04:28 | 39.18322 | -4.99869 | 34367 ft | 490 kts | 31° |
| 2026-05-07 04:28 | 39.21176 | -4.97469 | 34616 ft | 490 kts | 31° |
| 2026-05-07 04:29 | 39.23999 | -4.95112 | 34841 ft | 490 kts | 30° |
| 2026-05-07 04:29 | 39.26862 | -4.92728 | 35089 ft | 490 kts | 30° |
| 2026-05-07 04:29 | 39.29723 | -4.90349 | 35349 ft | 489 kts | 30° |
| 2026-05-07 04:29 | 39.32576 | -4.87974 | 35616 ft | 488 kts | 30° |
| 2026-05-07 04:30 | 39.35431 | -4.85594 | 35826 ft | 489 kts | 30° |
| 2026-05-07 04:30 | 39.38283 | -4.83214 | 36051 ft | 488 kts | 30° |
| 2026-05-07 04:30 | 39.41132 | -4.80831 | 36300 ft | 487 kts | 30° |
| 2026-05-07 04:30 | 39.43978 | -4.78449 | 36529 ft | 487 kts | 30° |
| 2026-05-07 04:31 | 39.46820 | -4.76066 | 36745 ft | 487 kts | 30° |
| 2026-05-07 04:31 | 39.49665 | -4.73680 | 36973 ft | 487 kts | 30° |
| 2026-05-07 04:31 | 39.52499 | -4.71300 | 37211 ft | 486 kts | 30° |
| 2026-05-07 04:31 | 39.55337 | -4.68914 | 37449 ft | 485 kts | 30° |
| 2026-05-07 04:32 | 39.58163 | -4.66536 | 37656 ft | 485 kts | 30° |
| 2026-05-07 04:32 | 39.60996 | -4.64150 | 37809 ft | 486 kts | 30° |
| 2026-05-07 04:32 | 39.66654 | -4.59378 | 37876 ft | 485 kts | 30° |
| 2026-05-07 04:33 | 39.72304 | -4.54603 | 37880 ft | 485 kts | 30° |
| 2026-05-07 04:33 | 39.77958 | -4.49815 | 37892 ft | 485 kts | 30° |
| 2026-05-07 04:34 | 39.83620 | -4.45011 | 37890 ft | 486 kts | 30° |
| 2026-05-07 04:34 | 39.89282 | -4.40195 | 37888 ft | 487 kts | 30° |
| 2026-05-07 04:35 | 39.94953 | -4.35364 | 37894 ft | 487 kts | 30° |
| 2026-05-07 04:35 | 40.00830 | -4.31064 | 37909 ft | 483 kts | 21° |
| 2026-05-07 04:36 | 40.06937 | -4.27435 | 37901 ft | 482 kts | 20° |
| 2026-05-07 04:36 | 40.13054 | -4.23837 | 37899 ft | 483 kts | 21° |
| 2026-05-07 04:37 | 40.19158 | -4.20158 | 37902 ft | 483 kts | 21° |
| 2026-05-07 04:37 | 40.25238 | -4.16440 | 37905 ft | 482 kts | 21° |
| 2026-05-07 04:38 | 40.31270 | -4.12735 | 37908 ft | 482 kts | 21° |
| 2026-05-07 04:38 | 40.36356 | -4.09609 | 37929 ft | 481 kts | 21° |
| 2026-05-07 04:39 | 40.42986 | -4.05528 | 37926 ft | 481 kts | 21° |
| 2026-05-07 04:39 | 40.49044 | -4.01792 | 37925 ft | 481 kts | 21° |
| 2026-05-07 04:40 | 40.54116 | -3.98659 | 37938 ft | 480 kts | 21° |
| 2026-05-07 04:40 | 40.60159 | -3.94920 | 37943 ft | 480 kts | 21° |
| 2026-05-07 04:41 | 40.66203 | -3.91172 | 37939 ft | 480 kts | 21° |
| 2026-05-07 04:41 | 40.72204 | -3.87442 | 37943 ft | 480 kts | 21° |
| 2026-05-07 04:42 | 40.78239 | -3.83684 | 37939 ft | 479 kts | 21° |
| 2026-05-07 04:42 | 40.84266 | -3.79924 | 37941 ft | 478 kts | 21° |
| 2026-05-07 04:43 | 40.90289 | -3.76160 | 37965 ft | 479 kts | 23° |
| 2026-05-07 04:43 | 40.96318 | -3.72383 | 37965 ft | 480 kts | 23° |
| 2026-05-07 04:44 | 41.02403 | -3.68562 | 37963 ft | 481 kts | 23° |
| 2026-05-07 04:44 | 41.08419 | -3.64777 | 37964 ft | 483 kts | 23° |
| 2026-05-07 04:45 | 41.14495 | -3.60948 | 37964 ft | 484 kts | 23° |
| 2026-05-07 04:45 | 41.20665 | -3.57388 | 37958 ft | 483 kts | 19° |
| 2026-05-07 04:46 | 41.26907 | -3.54060 | 37960 ft | 484 kts | 19° |
| 2026-05-07 04:46 | 41.33142 | -3.50696 | 37962 ft | 483 kts | 20° |
| 2026-05-07 04:47 | 41.39360 | -3.47285 | 37959 ft | 483 kts | 20° |
| 2026-05-07 04:47 | 41.45559 | -3.43869 | 37963 ft | 481 kts | 20° |
| 2026-05-07 04:48 | 41.51742 | -3.40462 | 37961 ft | 480 kts | 20° |
| 2026-05-07 04:48 | 41.57908 | -3.37063 | 37978 ft | 479 kts | 20° |
| 2026-05-07 04:49 | 41.64056 | -3.33668 | 37977 ft | 478 kts | 20° |
| 2026-05-07 04:49 | 41.70187 | -3.30274 | 37975 ft | 477 kts | 20° |
| 2026-05-07 04:50 | 41.76309 | -3.26877 | 37985 ft | 476 kts | 20° |
| 2026-05-07 04:50 | 41.82422 | -3.23479 | 37990 ft | 476 kts | 20° |
| 2026-05-07 04:51 | 41.88536 | -3.20072 | 37992 ft | 476 kts | 20° |
| 2026-05-07 04:51 | 41.94607 | -3.16683 | 37998 ft | 476 kts | 20° |
| 2026-05-07 04:52 | 42.00722 | -3.13262 | 37998 ft | 476 kts | 20° |
| 2026-05-07 04:52 | 42.06841 | -3.09831 | 38011 ft | 477 kts | 20° |
| 2026-05-07 04:53 | 42.12972 | -3.06387 | 38006 ft | 478 kts | 20° |
| 2026-05-07 04:53 | 42.19107 | -3.02932 | 38007 ft | 478 kts | 20° |
| 2026-05-07 04:54 | 42.25241 | -2.99471 | 38027 ft | 478 kts | 20° |
| 2026-05-07 04:54 | 42.31379 | -2.96001 | 38020 ft | 478 kts | 20° |
| 2026-05-07 04:55 | 42.37520 | -2.92521 | 38025 ft | 479 kts | 20° |
| 2026-05-07 04:55 | 42.43652 | -2.88961 | 38010 ft | 481 kts | 25° |
| 2026-05-07 04:56 | 42.49139 | -2.83784 | 38027 ft | 483 kts | 40° |
| 2026-05-07 04:56 | 42.54124 | -2.77665 | 38018 ft | 484 kts | 41° |
| 2026-05-07 04:57 | 42.59102 | -2.71518 | 38020 ft | 484 kts | 41° |
| 2026-05-07 04:57 | 42.64113 | -2.65417 | 38001 ft | 484 kts | 40° |
| 2026-05-07 04:58 | 42.69141 | -2.59328 | 38008 ft | 484 kts | 40° |
| 2026-05-07 04:58 | 42.74165 | -2.53233 | 38005 ft | 484 kts | 40° |
| 2026-05-07 04:59 | 42.79182 | -2.47128 | 38012 ft | 484 kts | 40° |
| 2026-05-07 04:59 | 42.84195 | -2.41011 | 38006 ft | 484 kts | 40° |
| 2026-05-07 05:00 | 42.89166 | -2.34933 | 38017 ft | 483 kts | 40° |
| 2026-05-07 05:00 | 42.94170 | -2.28798 | 38034 ft | 483 kts | 40° |
| 2026-05-07 05:01 | 42.99170 | -2.22656 | 38028 ft | 483 kts | 40° |
| 2026-05-07 05:01 | 43.04153 | -2.16499 | 38026 ft | 483 kts | 41° |
| 2026-05-07 05:02 | 43.09128 | -2.10337 | 38016 ft | 482 kts | 41° |
| 2026-05-07 05:02 | 43.14114 | -2.04157 | 37521 ft | 488 kts | 41° |
| 2026-05-07 05:03 | 43.16627 | -2.01038 | 36992 ft | 486 kts | 40° |
| 2026-05-07 05:03 | 43.19128 | -1.97932 | 36393 ft | 485 kts | 41° |
| 2026-05-07 05:03 | 43.21623 | -1.94827 | 35786 ft | 485 kts | 40° |
| 2026-05-07 05:03 | 43.24124 | -1.91712 | 35131 ft | 486 kts | 40° |
| 2026-05-07 05:04 | 43.26125 | -1.89218 | 34604 ft | 487 kts | 40° |
| 2026-05-07 05:04 | 43.28638 | -1.86081 | 33876 ft | 490 kts | 40° |
| 2026-05-07 05:04 | 43.31084 | -1.82817 | 33102 ft | 492 kts | 47° |
| 2026-05-07 05:04 | 43.33186 | -1.79106 | 32298 ft | 493 kts | 56° |
| 2026-05-07 05:05 | 43.35037 | -1.75148 | 31701 ft | 490 kts | 57° |
| 2026-05-07 05:05 | 43.36864 | -1.71235 | 31251 ft | 483 kts | 57° |
| 2026-05-07 05:05 | 43.38705 | -1.67401 | 30785 ft | 477 kts | 56° |
| 2026-05-07 05:05 | 43.40547 | -1.63632 | 30280 ft | 473 kts | 56° |
| 2026-05-07 05:06 | 43.42375 | -1.59900 | 29744 ft | 468 kts | 56° |
| 2026-05-07 05:06 | 43.44179 | -1.56202 | 29212 ft | 462 kts | 56° |
| 2026-05-07 05:06 | 43.46039 | -1.52638 | 28682 ft | 456 kts | 50° |
| 2026-05-07 05:06 | 43.48208 | -1.49493 | 28257 ft | 449 kts | 41° |
| 2026-05-07 05:07 | 43.50606 | -1.46912 | 27843 ft | 441 kts | 35° |
| 2026-05-07 05:07 | 43.53095 | -1.44471 | 27332 ft | 437 kts | 34° |
| 2026-05-07 05:07 | 43.55575 | -1.42072 | 26834 ft | 433 kts | 34° |
| 2026-05-07 05:07 | 43.58030 | -1.39691 | 26345 ft | 429 kts | 35° |
| 2026-05-07 05:08 | 43.60456 | -1.37321 | 25861 ft | 426 kts | 35° |
| 2026-05-07 05:08 | 43.62858 | -1.34954 | 25379 ft | 422 kts | 35° |
| 2026-05-07 05:08 | 43.65204 | -1.32629 | 24908 ft | 419 kts | 36° |
| 2026-05-07 05:08 | 43.67564 | -1.30280 | 24438 ft | 417 kts | 36° |
| 2026-05-07 05:09 | 43.69905 | -1.27944 | 23966 ft | 414 kts | 36° |
| 2026-05-07 05:09 | 43.72230 | -1.25620 | 23468 ft | 411 kts | 36° |
| 2026-05-07 05:09 | 43.74544 | -1.23305 | 22905 ft | 409 kts | 36° |
| 2026-05-07 05:09 | 43.76835 | -1.21010 | 22418 ft | 405 kts | 36° |
| 2026-05-07 05:10 | 43.79107 | -1.18733 | 21944 ft | 401 kts | 36° |
| 2026-05-07 05:10 | 43.81354 | -1.16478 | 21475 ft | 397 kts | 36° |
| 2026-05-07 05:10 | 43.83584 | -1.14240 | 21007 ft | 394 kts | 36° |
| 2026-05-07 05:10 | 43.85793 | -1.12019 | 20546 ft | 391 kts | 36° |
| 2026-05-07 05:11 | 43.87986 | -1.09813 | 20091 ft | 388 kts | 36° |
| 2026-05-07 05:11 | 43.90160 | -1.07624 | 19641 ft | 385 kts | 36° |
| 2026-05-07 05:11 | 43.92321 | -1.05447 | 19194 ft | 383 kts | 36° |
| 2026-05-07 05:11 | 43.94468 | -1.03281 | 18752 ft | 380 kts | 36° |
| 2026-05-07 05:12 | 43.96600 | -1.01128 | 18304 ft | 378 kts | 36° |
| 2026-05-07 05:12 | 43.98724 | -0.98983 | 17799 ft | 376 kts | 36° |
| 2026-05-07 05:12 | 44.00832 | -0.96850 | 17324 ft | 373 kts | 36° |
| 2026-05-07 05:12 | 44.02924 | -0.94732 | 16871 ft | 370 kts | 36° |
| 2026-05-07 05:13 | 44.04998 | -0.92631 | 16426 ft | 367 kts | 36° |
| 2026-05-07 05:13 | 44.07052 | -0.90549 | 15998 ft | 364 kts | 36° |
| 2026-05-07 05:13 | 44.09091 | -0.88479 | 15569 ft | 361 kts | 36° |
| 2026-05-07 05:13 | 44.11113 | -0.86424 | 15148 ft | 359 kts | 36° |
| 2026-05-07 05:14 | 44.13119 | -0.84385 | 14725 ft | 356 kts | 36° |
| 2026-05-07 05:14 | 44.15112 | -0.82356 | 14309 ft | 354 kts | 36° |
| 2026-05-07 05:14 | 44.17092 | -0.80340 | 13892 ft | 351 kts | 36° |
| 2026-05-07 05:14 | 44.19060 | -0.78333 | 13433 ft | 349 kts | 36° |
| 2026-05-07 05:15 | 44.21013 | -0.76340 | 12975 ft | 347 kts | 36° |
| 2026-05-07 05:15 | 44.22952 | -0.74360 | 12562 ft | 344 kts | 36° |
| 2026-05-07 05:15 | 44.24873 | -0.72397 | 12147 ft | 341 kts | 35° |
| 2026-05-07 05:15 | 44.26770 | -0.70457 | 11736 ft | 339 kts | 35° |
| 2026-05-07 05:16 | 44.28694 | -0.68543 | 11349 ft | 336 kts | 32° |
| 2026-05-07 05:16 | 44.30653 | -0.66797 | 10964 ft | 333 kts | 30° |
| 2026-05-07 05:16 | 44.32623 | -0.65111 | 10694 ft | 329 kts | 30° |
| 2026-05-07 05:16 | 44.34546 | -0.63472 | 10543 ft | 319 kts | 30° |
| 2026-05-07 05:17 | 44.36387 | -0.61893 | 10399 ft | 310 kts | 30° |
| 2026-05-07 05:17 | 44.38197 | -0.60330 | 10276 ft | 301 kts | 30° |
| 2026-05-07 05:17 | 44.39951 | -0.58805 | 10157 ft | 293 kts | 30° |
| 2026-05-07 05:17 | 44.41659 | -0.57315 | 10030 ft | 285 kts | 30° |
| 2026-05-07 05:18 | 44.43334 | -0.55853 | 9759 ft | 283 kts | 30° |
| 2026-05-07 05:18 | 44.45000 | -0.54399 | 9476 ft | 281 kts | 30° |
| 2026-05-07 05:18 | 44.46656 | -0.52950 | 9188 ft | 280 kts | 30° |
| 2026-05-07 05:18 | 44.48301 | -0.51508 | 8909 ft | 278 kts | 30° |
| 2026-05-07 05:19 | 44.49935 | -0.50078 | 8628 ft | 277 kts | 30° |
| 2026-05-07 05:19 | 44.51562 | -0.48649 | 8341 ft | 275 kts | 31° |
| 2026-05-07 05:19 | 44.53217 | -0.47341 | 8066 ft | 272 kts | 17° |
| 2026-05-07 05:19 | 44.55064 | -0.47047 | 7805 ft | 266 kts | 350° |
| 2026-05-07 05:20 | 44.56770 | -0.47930 | 7538 ft | 261 kts | 326° |
| 2026-05-07 05:20 | 44.58133 | -0.49581 | 7278 ft | 258 kts | 314° |
| 2026-05-07 05:20 | 44.59372 | -0.51404 | 7005 ft | 258 kts | 312° |
| 2026-05-07 05:20 | 44.60597 | -0.53235 | 6717 ft | 257 kts | 313° |
| 2026-05-07 05:21 | 44.61818 | -0.55073 | 6473 ft | 258 kts | 313° |
| 2026-05-07 05:21 | 44.64277 | -0.58756 | 5870 ft | 258 kts | 313° |
| 2026-05-07 05:21 | 44.65506 | -0.60591 | 5611 ft | 258 kts | 313° |
| 2026-05-07 05:22 | 44.66736 | -0.62421 | 5355 ft | 257 kts | 313° |
| 2026-05-07 05:22 | 44.67958 | -0.64236 | 5096 ft | 255 kts | 313° |
| 2026-05-07 05:22 | 44.69178 | -0.66043 | 4832 ft | 254 kts | 313° |
| 2026-05-07 05:22 | 44.70375 | -0.67821 | 4701 ft | 247 kts | 313° |
| 2026-05-07 05:23 | 44.71544 | -0.69558 | 4554 ft | 242 kts | 313° |
| 2026-05-07 05:23 | 44.72686 | -0.71255 | 4460 ft | 234 kts | 314° |
| 2026-05-07 05:23 | 44.73791 | -0.72898 | 4345 ft | 228 kts | 313° |
| 2026-05-07 05:23 | 44.74869 | -0.74499 | 4202 ft | 222 kts | 313° |
| 2026-05-07 05:24 | 44.75920 | -0.76062 | 4027 ft | 218 kts | 314° |
| 2026-05-07 05:24 | 44.76961 | -0.77609 | 3810 ft | 217 kts | 314° |
| 2026-05-07 05:24 | 44.77995 | -0.79152 | 3576 ft | 216 kts | 313° |
| 2026-05-07 05:24 | 44.79026 | -0.80688 | 3343 ft | 216 kts | 314° |
| 2026-05-07 05:25 | 44.80055 | -0.82221 | 3091 ft | 215 kts | 314° |
| 2026-05-07 05:25 | 44.81197 | -0.83549 | 2834 ft | 214 kts | 338° |
| 2026-05-07 05:25 | 44.82656 | -0.83746 | 2594 ft | 214 kts | 14° |
| 2026-05-07 05:25 | 44.83901 | -0.82687 | 2305 ft | 214 kts | 55° |
| 2026-05-07 05:26 | 44.84276 | -0.80705 | 2097 ft | 215 kts | 94° |
| 2026-05-07 05:26 | 44.84079 | -0.78611 | 2036 ft | 218 kts | 99° |
| 2026-05-07 05:26 | 44.83817 | -0.76377 | 705 ft | 245 kts | 100° |
| 2026-05-07 05:26 | 44.83441 | -0.74212 | 347 ft | 220 kts | 109° |
| 2026-05-07 05:27 | 44.83148 | -0.72871 | 197 ft | 204 kts | 106° |
| 2026-05-07 05:27 | 44.82737 | -0.70925 | 164 ft | 97 kts | 107° |
| 2026-05-07 05:27 | 44.82605 | -0.70291 | 169 ft | 46 kts | 106° |
| 2026-05-07 05:27 | 44.82600 | -0.69984 | 169 ft | 26 kts | 31° |
| 2026-05-07 05:28 | 44.82736 | -0.69978 | 168 ft | 19 kts | 305° |
| 2026-05-07 05:28 | 44.82763 | -0.70095 | 167 ft | 19 kts | 282° |
| 2026-05-07 05:28 | 44.82859 | -0.70160 | 167 ft | 17 kts | 17° |
| 2026-05-07 05:28 | 44.82917 | -0.70148 | 166 ft | 0 kts | 1° |